Time;durP1;ratioP1;P1;durP2;ratioP2;P2;SDS_P1;SDS_P2;PMS_P1;PMS_P2;Temp;Humidity;BMP_temperature;BMP_pressure;BME280_temperature;BME280_humidity;BME280_pressure;Samples;Min_cycle;Max_cycle;Signal;HPM_P1;HPM_P2
2023/01/21 00:00:04;;;;;;;1.83;0.73;;;2.80;70.70;;;;;;5104170;28;20031;-69
2023/01/21 00:02:30;;;;;;;1.67;0.75;;;2.80;70.50;;;;;;5105196;28;20925;-69
2023/01/21 00:04:56;;;;;;;2.17;0.80;;;2.80;70.60;;;;;;5106389;28;20028;-69
2023/01/21 00:07:21;;;;;;;2.10;0.82;;;2.80;72.00;;;;;;5100742;28;20032;-69
2023/01/21 00:09:47;;;;;;;0.98;0.38;;;2.70;71.40;;;;;;5107613;28;20385;-69
2023/01/21 00:12:14;;;;;;;1.58;0.68;;;2.70;70.30;;;;;;5108310;28;20044;-69
2023/01/21 00:14:39;;;;;;;1.25;0.70;;;2.80;70.30;;;;;;5102288;28;20059;-69
2023/01/21 00:17:05;;;;;;;2.22;0.73;;;2.80;70.20;;;;;;5105487;28;20063;-69
2023/01/21 00:19:31;;;;;;;1.70;0.60;;;3.00;70.00;;;;;;5105657;28;20489;-69
2023/01/21 00:21:57;;;;;;;2.83;0.60;;;2.90;70.20;;;;;;5108055;28;20381;-69
2023/01/21 00:24:23;;;;;;;0.90;0.50;;;2.90;70.10;;;;;;5103108;28;20235;-69
2023/01/21 00:26:49;;;;;;;4.70;0.60;;;2.90;69.80;;;;;;5107454;28;20032;-69
2023/01/21 00:29:15;;;;;;;1.27;0.70;;;3.00;69.60;;;;;;5103964;28;20514;-69
2023/01/21 00:31:41;;;;;;;1.52;0.52;;;2.90;70.20;;;;;;5106677;28;20028;-69
2023/01/21 00:34:06;;;;;;;1.45;0.77;;;3.00;69.60;;;;;;5104957;28;20113;-70
2023/01/21 00:36:32;;;;;;;1.50;0.82;;;2.90;70.10;;;;;;5106790;28;20448;-69
2023/01/21 00:38:58;;;;;;;2.00;0.70;;;2.80;70.80;;;;;;5106826;28;20583;-69
2023/01/21 00:41:25;;;;;;;2.05;0.88;;;2.70;70.00;;;;;;5108692;28;20031;-69
2023/01/21 00:43:51;;;;;;;1.75;0.65;;;3.00;69.10;;;;;;5110186;28;20062;-69
2023/01/21 00:46:17;;;;;;;1.58;0.70;;;3.00;69.50;;;;;;5110972;28;20028;-69
2023/01/21 00:48:43;;;;;;;0.77;0.32;;;3.00;70.30;;;;;;5108956;28;20019;-69
2023/01/21 00:51:09;;;;;;;1.80;0.55;;;3.10;69.10;;;;;;5111020;28;20030;-69
2023/01/21 00:53:37;;;;;;;1.80;0.75;;;3.10;69.20;;;;;;5110182;28;20031;-69
2023/01/21 00:56:07;;;;;;;1.77;0.55;;;3.00;69.60;;;;;;5111140;28;20439;-69
2023/01/21 00:58:33;;;;;;;1.20;0.60;;;3.00;69.50;;;;;;5111042;28;20062;-69
2023/01/21 01:01:10;;;;;;;2.35;1.25;;;3.00;69.60;;;;;;5113606;28;20028;-69
2023/01/21 01:03:37;;;;;;;0.95;0.55;;;2.70;71.50;;;;;;5112910;28;20036;-69
2023/01/21 01:06:22;;;;;;;1.63;0.60;;;2.80;70.20;;;;;;5113969;28;20057;-69
2023/01/21 01:08:48;;;;;;;1.38;0.60;;;2.70;70.20;;;;;;5114913;28;20092;-69
2023/01/21 01:11:15;;;;;;;1.05;0.50;;;2.80;70.20;;;;;;5112109;28;20492;-69
2023/01/21 01:13:42;;;;;;;1.38;0.55;;;2.80;69.30;;;;;;5114073;28;20427;-69
2023/01/21 01:16:09;;;;;;;1.42;0.63;;;3.00;69.20;;;;;;5114260;28;20110;-69
2023/01/21 01:18:36;;;;;;;1.75;0.55;;;2.90;70.20;;;;;;5115111;28;20348;-69
2023/01/21 01:21:02;;;;;;;1.23;0.65;;;2.80;70.30;;;;;;5112847;28;20027;-69
2023/01/21 01:23:28;;;;;;;0.82;0.43;;;2.90;69.70;;;;;;5112534;28;20031;-69
2023/01/21 01:25:59;;;;;;;0.82;0.40;;;2.80;70.70;;;;;;5112705;28;20027;-69
2023/01/21 01:28:25;;;;;;;1.05;0.57;;;2.90;69.80;;;;;;5111957;28;20019;-69
2023/01/21 01:30:51;;;;;;;1.27;0.40;;;2.90;69.90;;;;;;5113837;28;20027;-69
2023/01/21 01:33:18;;;;;;;0.63;0.40;;;2.90;69.50;;;;;;5113784;28;20023;-69
2023/01/21 01:35:46;;;;;;;1.15;0.50;;;3.00;69.70;;;;;;5109604;28;20432;-69
2023/01/21 01:38:13;;;;;;;1.48;0.68;;;2.90;70.00;;;;;;5112832;28;20039;-69
2023/01/21 01:40:39;;;;;;;0.85;0.50;;;3.00;68.80;;;;;;5113121;28;20473;-69
2023/01/21 01:43:26;;;;;;;3.15;0.63;;;3.10;69.20;;;;;;5113422;28;20039;-69
2023/01/21 01:45:53;;;;;;;4.78;0.65;;;2.80;70.20;;;;;;5114099;28;20032;-69
2023/01/21 01:48:30;;;;;;;0.57;0.38;;;2.90;69.50;;;;;;5114311;28;20023;-69
2023/01/21 01:50:59;;;;;;;1.60;0.50;;;2.60;71.30;;;;;;5114990;28;20036;-69
2023/01/21 01:53:27;;;;;;;1.10;0.60;;;2.60;70.60;;;;;;5111478;28;20028;-69
2023/01/21 01:55:54;;;;;;;3.13;0.50;;;2.60;71.00;;;;;;5114243;28;20023;-69
2023/01/21 01:58:21;;;;;;;1.00;0.40;;;2.50;71.00;;;;;;5113565;28;20035;-69
2023/01/21 02:00:47;;;;;;;2.50;0.85;;;2.50;71.70;;;;;;5113119;28;20084;-69
2023/01/21 02:05:59;;;;;;;1.38;0.47;;;2.90;69.30;;;;;;5102194;28;20139;-69
2023/01/21 02:08:26;;;;;;;0.70;0.38;;;3.00;69.30;;;;;;5108925;28;20024;-69
2023/01/21 02:10:54;;;;;;;1.05;0.68;;;2.70;70.70;;;;;;5112882;28;20038;-69
2023/01/21 02:13:26;;;;;;;1.08;0.60;;;2.60;71.10;;;;;;5113879;28;20035;-69
2023/01/21 02:16:02;;;;;;;1.58;0.55;;;2.70;70.30;;;;;;5113576;28;20027;-70
2023/01/21 02:18:39;;;;;;;2.25;0.60;;;2.60;70.70;;;;;;5113386;28;20032;-70
2023/01/21 02:21:13;;;;;;;1.63;0.47;;;2.80;70.00;;;;;;5110948;28;20393;-70
2023/01/21 02:23:56;;;;;;;1.25;0.47;;;2.80;69.80;;;;;;5112213;28;20092;-70
2023/01/21 02:26:28;;;;;;;2.92;0.88;;;2.60;71.00;;;;;;5106959;28;20024;-70
2023/01/21 02:29:18;;;;;;;0.98;0.60;;;2.80;69.90;;;;;;5108751;28;20032;-70
2023/01/21 02:32:11;;;;;;;1.48;0.73;;;2.80;70.70;;;;;;5112464;28;20032;-70
2023/01/21 02:34:56;;;;;;;1.35;0.52;;;2.70;69.90;;;;;;5112967;28;20031;-70
2023/01/21 02:37:33;;;;;;;0.77;0.47;;;2.80;69.70;;;;;;5097549;28;20497;-71
2023/01/21 02:40:25;;;;;;;0.85;0.55;;;2.80;69.90;;;;;;5113270;28;20059;-70
2023/01/21 02:43:01;;;;;;;0.63;0.30;;;2.80;70.90;;;;;;5109809;28;20039;-70
2023/01/21 02:45:48;;;;;;;1.23;0.93;;;2.60;70.80;;;;;;5110212;28;20154;-70
2023/01/21 02:48:19;;;;;;;0.40;0.25;;;2.70;69.90;;;;;;5111114;28;20031;-70
2023/01/21 02:50:51;;;;;;;1.20;0.50;;;2.80;70.30;;;;;;5113574;28;20042;-70
2023/01/21 02:53:37;;;;;;;0.35;0.30;;;3.00;69.10;;;;;;5111930;28;20032;-70
2023/01/21 02:56:12;;;;;;;1.38;0.68;;;3.00;69.40;;;;;;5112461;28;20050;-70
2023/01/21 02:58:50;;;;;;;0.60;0.35;;;3.10;68.50;;;;;;5112118;28;20036;-70
2023/01/21 03:01:22;;;;;;;1.23;0.50;;;2.90;69.70;;;;;;5111205;28;20035;-70
2023/01/21 03:03:56;;;;;;;1.38;0.50;;;3.00;69.20;;;;;;5107392;28;20039;-70
2023/01/21 03:06:52;;;;;;;3.33;1.45;;;2.80;70.10;;;;;;5102421;28;20481;-70
2023/01/21 03:09:22;;;;;;;1.92;0.45;;;2.90;69.50;;;;;;5105467;28;20024;-70
2023/01/21 03:11:56;;;;;;;0.45;0.38;;;2.90;69.80;;;;;;5110302;28;20024;-70
2023/01/21 03:17:19;;;;;;;0.70;0.35;;;3.00;69.20;;;;;;5110091;28;20074;-70
2023/01/21 03:19:52;;;;;;;2.30;0.30;;;2.90;69.20;;;;;;5113326;28;20019;-70
2023/01/21 03:22:23;;;;;;;0.90;0.60;;;3.00;69.10;;;;;;5111516;28;20039;-70
2023/01/21 03:24:52;;;;;;;0.43;0.30;;;3.00;69.10;;;;;;5112646;28;20034;-70
2023/01/21 03:27:21;;;;;;;0.98;0.47;;;3.10;68.70;;;;;;5107922;28;20031;-70
2023/01/21 03:29:51;;;;;;;1.55;0.38;;;3.20;68.60;;;;;;5110265;28;20038;-70
2023/01/21 03:32:20;;;;;;;1.50;0.63;;;3.10;69.40;;;;;;5109877;28;20020;-70
2023/01/21 03:34:50;;;;;;;0.73;0.30;;;3.00;69.10;;;;;;5100033;28;20050;-70
2023/01/21 03:37:31;;;;;;;0.82;0.43;;;3.00;69.50;;;;;;5109584;28;20126;-70
2023/01/21 03:40:02;;;;;;;0.57;0.30;;;3.00;69.10;;;;;;5102736;28;20023;-70
2023/01/21 03:42:28;;;;;;;1.02;0.40;;;3.00;68.90;;;;;;5111813;28;20050;-70
2023/01/21 03:44:54;;;;;;;0.90;0.40;;;3.00;69.40;;;;;;5112964;28;20038;-70
2023/01/21 03:47:30;;;;;;;1.38;0.57;;;2.90;69.90;;;;;;5107658;28;20039;-70
2023/01/21 03:50:10;;;;;;;0.70;0.38;;;3.00;68.60;;;;;;5111922;28;20097;-70
2023/01/21 03:52:39;;;;;;;1.10;0.60;;;3.20;67.70;;;;;;5111520;28;20076;-70
2023/01/21 03:55:06;;;;;;;0.88;0.43;;;3.20;68.90;;;;;;5111723;28;20489;-70
2023/01/21 03:57:32;;;;;;;0.60;0.43;;;3.20;68.30;;;;;;5110236;28;20161;-70
2023/01/21 03:59:57;;;;;;;1.42;0.40;;;3.20;68.50;;;;;;5109864;28;20196;-70
2023/01/21 04:02:23;;;;;;;0.80;0.30;;;3.10;68.60;;;;;;5110061;28;20035;-70
2023/01/21 04:04:50;;;;;;;1.65;0.32;;;3.10;68.80;;;;;;5098361;28;20053;-70
2023/01/21 04:07:16;;;;;;;1.40;0.35;;;3.00;69.20;;;;;;5105169;28;20055;-70
2023/01/21 04:09:42;;;;;;;0.73;0.47;;;2.90;69.60;;;;;;5105483;28;20067;-70
2023/01/21 04:12:08;;;;;;;0.57;0.40;;;2.90;68.80;;;;;;5103764;28;20035;-70
2023/01/21 04:14:33;;;;;;;1.17;0.50;;;2.90;69.50;;;;;;5095577;28;20032;-70
2023/01/21 04:16:59;;;;;;;0.95;0.13;;;2.80;70.20;;;;;;5106114;28;20031;-70
2023/01/21 04:19:25;;;;;;;0.85;0.38;;;2.70;69.80;;;;;;5108858;28;20031;-69
2023/01/21 04:21:50;;;;;;;1.33;0.50;;;3.00;69.20;;;;;;5107269;28;20024;-69
2023/01/21 04:24:16;;;;;;;0.63;0.40;;;2.80;70.80;;;;;;5111635;28;20085;-69
2023/01/21 04:26:42;;;;;;;0.40;0.40;;;3.00;68.80;;;;;;5110101;28;20127;-69
2023/01/21 04:29:07;;;;;;;0.43;0.38;;;3.00;68.20;;;;;;5110052;28;20047;-69
2023/01/21 04:31:33;;;;;;;1.08;0.52;;;3.10;68.40;;;;;;5110775;28;20035;-69
2023/01/21 04:33:59;;;;;;;0.47;0.30;;;3.00;69.60;;;;;;5109052;28;20024;-69
2023/01/21 04:36:24;;;;;;;2.10;0.80;;;3.00;68.90;;;;;;5111702;28;20054;-69
2023/01/21 04:38:50;;;;;;;1.27;0.68;;;3.00;69.10;;;;;;5109120;28;20027;-69
2023/01/21 04:41:16;;;;;;;0.68;0.50;;;3.10;68.40;;;;;;5109757;28;20031;-69
2023/01/21 04:43:41;;;;;;;0.63;0.38;;;3.10;68.40;;;;;;5108947;28;20195;-69
2023/01/21 04:46:07;;;;;;;1.42;0.75;;;3.10;68.60;;;;;;5107462;28;20019;-69
2023/01/21 04:48:33;;;;;;;1.75;0.57;;;2.80;70.20;;;;;;5108118;28;20035;-69
2023/01/21 04:50:58;;;;;;;0.70;0.40;;;3.10;68.70;;;;;;5109406;28;20031;-69
2023/01/21 04:53:24;;;;;;;3.13;0.40;;;3.00;69.40;;;;;;5113241;28;20480;-69
2023/01/21 04:55:51;;;;;;;1.55;0.40;;;3.30;68.00;;;;;;5112192;28;20024;-69
2023/01/21 04:58:17;;;;;;;0.35;0.30;;;3.20;68.50;;;;;;5110127;28;20473;-69
2023/01/21 05:00:43;;;;;;;1.00;0.40;;;3.20;68.20;;;;;;5110990;28;20039;-69
2023/01/21 05:03:08;;;;;;;0.88;0.40;;;3.20;68.70;;;;;;5110820;28;20038;-69
2023/01/21 05:05:34;;;;;;;1.05;0.40;;;3.20;68.30;;;;;;5107190;28;20034;-69
2023/01/21 05:08:00;;;;;;;0.60;0.40;;;3.20;68.80;;;;;;5109240;28;20063;-69
2023/01/21 05:10:25;;;;;;;0.90;0.40;;;3.10;69.10;;;;;;5110999;28;20057;-69
2023/01/21 05:12:51;;;;;;;1.02;0.47;;;3.20;68.30;;;;;;5109229;28;20063;-69
2023/01/21 05:15:16;;;;;;;0.50;0.32;;;3.10;69.10;;;;;;5106756;28;20139;-69
2023/01/21 05:17:42;;;;;;;0.73;0.30;;;2.90;69.70;;;;;;5110541;28;20073;-69
2023/01/21 05:20:08;;;;;;;1.00;0.47;;;3.00;70.00;;;;;;5108890;28;20035;-69
2023/01/21 05:22:34;;;;;;;1.15;0.43;;;2.90;69.70;;;;;;5111097;28;20054;-69
2023/01/21 05:25:00;;;;;;;0.80;0.47;;;3.10;69.00;;;;;;5110886;28;20505;-69
2023/01/21 05:27:26;;;;;;;2.30;0.63;;;3.00;68.90;;;;;;5106281;28;20474;-69
2023/01/21 05:29:52;;;;;;;0.82;0.30;;;3.10;69.30;;;;;;5107150;28;20023;-69
2023/01/21 05:32:18;;;;;;;1.10;0.55;;;3.00;69.80;;;;;;5107578;28;20035;-69
2023/01/21 05:34:43;;;;;;;0.85;0.40;;;3.00;68.70;;;;;;5109967;28;20511;-69
2023/01/21 05:37:10;;;;;;;0.68;0.38;;;3.10;68.70;;;;;;5108668;28;20044;-69
2023/01/21 05:39:36;;;;;;;2.05;0.70;;;3.10;68.60;;;;;;5108928;28;20448;-69
2023/01/21 05:42:02;;;;;;;1.40;0.52;;;3.20;68.60;;;;;;5108187;28;20118;-69
2023/01/21 05:44:27;;;;;;;0.95;0.50;;;3.20;68.40;;;;;;5105705;28;20102;-69
2023/01/21 05:46:53;;;;;;;1.20;0.40;;;3.10;69.10;;;;;;5109863;28;20035;-69
2023/01/21 05:49:18;;;;;;;2.08;0.38;;;3.00;69.30;;;;;;5108782;28;20500;-69
2023/01/21 05:51:44;;;;;;;0.43;0.20;;;3.10;69.00;;;;;;5089804;28;20610;-69
2023/01/21 05:54:10;;;;;;;0.63;0.30;;;3.10;68.80;;;;;;5095215;28;20027;-69
2023/01/21 05:56:35;;;;;;;1.02;0.47;;;3.10;68.30;;;;;;5108220;28;20133;-69
2023/01/21 05:59:01;;;;;;;0.50;0.32;;;3.10;68.50;;;;;;5104289;28;20035;-69
2023/01/21 06:01:27;;;;;;;0.93;0.30;;;3.40;67.60;;;;;;5104395;28;20027;-69
2023/01/21 06:03:53;;;;;;;1.45;0.60;;;3.30;68.40;;;;;;5107048;28;20074;-69
2023/01/21 06:06:18;;;;;;;0.43;0.30;;;3.30;68.30;;;;;;5107408;28;20386;-69
2023/01/21 06:08:44;;;;;;;0.93;0.35;;;3.20;69.00;;;;;;5107100;28;20043;-69
2023/01/21 06:11:09;;;;;;;1.75;0.65;;;3.20;68.20;;;;;;5107435;28;20031;-69
2023/01/21 06:13:35;;;;;;;1.25;0.63;;;3.10;69.30;;;;;;5108041;28;20051;-69
2023/01/21 06:16:01;;;;;;;0.68;0.30;;;3.20;67.90;;;;;;5109640;28;20092;-69
2023/01/21 06:18:26;;;;;;;1.77;0.82;;;3.40;67.60;;;;;;5107966;28;20031;-69
2023/01/21 06:20:52;;;;;;;1.05;0.40;;;3.50;67.50;;;;;;5107992;28;20078;-69
2023/01/21 06:23:18;;;;;;;0.90;0.40;;;3.50;67.30;;;;;;5110364;28;20059;-69
2023/01/21 06:25:44;;;;;;;1.02;0.43;;;3.60;66.90;;;;;;5107254;28;20058;-69
2023/01/21 06:28:12;;;;;;;0.63;0.28;;;3.50;67.50;;;;;;5108086;28;20030;-69
2023/01/21 06:30:38;;;;;;;1.23;0.43;;;3.40;67.90;;;;;;5108204;28;20046;-69
2023/01/21 06:33:04;;;;;;;1.08;0.47;;;3.20;68.70;;;;;;5106523;28;20489;-69
2023/01/21 06:35:30;;;;;;;1.58;0.63;;;3.30;68.00;;;;;;5106543;28;20066;-69
2023/01/21 06:37:55;;;;;;;1.02;0.43;;;3.10;68.80;;;;;;5113067;28;20059;-70
2023/01/21 06:40:21;;;;;;;0.50;0.45;;;3.40;67.60;;;;;;5112605;28;20035;-70
2023/01/21 06:42:48;;;;;;;0.80;0.40;;;3.40;68.00;;;;;;5106802;28;20047;-69
2023/01/21 06:45:14;;;;;;;0.70;0.35;;;3.30;68.30;;;;;;5102219;28;20028;-69
2023/01/21 06:47:42;;;;;;;1.95;0.50;;;3.40;67.90;;;;;;5103663;28;20043;-70
2023/01/21 06:50:12;;;;;;;1.95;0.77;;;3.30;67.80;;;;;;5104194;28;20496;-70
2023/01/21 06:52:41;;;;;;;3.80;1.13;;;3.20;69.30;;;;;;5103501;28;20062;-69
2023/01/21 06:55:07;;;;;;;1.20;0.75;;;3.00;69.00;;;;;;5103876;28;20032;-69
2023/01/21 06:57:33;;;;;;;1.17;0.40;;;3.00;68.90;;;;;;5106032;28;20136;-69
2023/01/21 06:59:59;;;;;;;1.35;0.63;;;3.00;69.90;;;;;;5105305;28;20676;-69
2023/01/21 07:02:25;;;;;;;0.57;0.35;;;3.20;68.40;;;;;;5101982;28;20058;-69
2023/01/21 07:04:51;;;;;;;1.27;0.40;;;3.20;68.50;;;;;;5103415;28;20129;-69
2023/01/21 07:07:17;;;;;;;1.00;0.50;;;3.20;69.00;;;;;;5103268;28;20106;-69
2023/01/21 07:09:43;;;;;;;1.90;0.57;;;3.10;69.10;;;;;;5104727;28;20020;-70
2023/01/21 07:12:09;;;;;;;0.32;0.30;;;3.20;69.20;;;;;;5104186;28;20523;-70
2023/01/21 07:14:34;;;;;;;1.13;0.55;;;3.20;68.90;;;;;;5103628;28;20054;-69
2023/01/21 07:17:00;;;;;;;0.70;0.28;;;3.20;68.90;;;;;;5100286;28;20051;-70
2023/01/21 07:19:26;;;;;;;1.02;0.40;;;3.40;68.10;;;;;;5101286;28;20023;-69
2023/01/21 07:21:52;;;;;;;0.63;0.22;;;3.40;68.70;;;;;;5102709;28;20019;-69
2023/01/21 07:24:18;;;;;;;1.08;0.40;;;3.40;67.90;;;;;;5104899;28;20032;-69
2023/01/21 07:26:44;;;;;;;0.30;0.20;;;3.50;67.70;;;;;;5105918;28;20038;-69
2023/01/21 07:29:09;;;;;;;0.85;0.50;;;3.50;68.10;;;;;;5098934;28;20055;-69
2023/01/21 07:31:35;;;;;;;0.93;0.45;;;3.60;68.00;;;;;;5102644;28;20019;-69
2023/01/21 07:34:01;;;;;;;1.13;0.50;;;3.70;67.10;;;;;;5104479;28;20054;-69
2023/01/21 07:36:27;;;;;;;8.13;0.68;;;3.60;68.20;;;;;;5089720;28;20039;-69
2023/01/21 07:38:53;;;;;;;0.30;0.30;;;3.70;67.40;;;;;;5102744;28;20044;-69
2023/01/21 07:41:19;;;;;;;0.75;0.20;;;3.70;67.80;;;;;;5093239;28;20066;-70
2023/01/21 07:43:48;;;;;;;1.52;0.50;;;3.80;67.10;;;;;;5103153;28;20064;-70
2023/01/21 07:46:21;;;;;;;1.40;0.50;;;3.70;68.20;;;;;;5104712;28;20065;-70
2023/01/21 07:48:50;;;;;;;11.82;0.88;;;3.70;67.60;;;;;;5101823;28;20405;-70
2023/01/21 07:51:17;;;;;;;1.60;0.60;;;3.60;68.40;;;;;;5103101;28;20027;-70
2023/01/21 07:53:43;;;;;;;1.15;0.40;;;3.60;68.80;;;;;;5103382;28;20067;-70
2023/01/21 07:56:09;;;;;;;0.93;0.40;;;3.70;68.10;;;;;;5105042;28;20136;-70
2023/01/21 07:58:35;;;;;;;3.20;0.55;;;3.60;69.10;;;;;;5103591;28;20036;-70
2023/01/21 08:01:08;;;;;;;0.88;0.30;;;3.70;67.90;;;;;;5086382;28;20425;-70
2023/01/21 08:03:38;;;;;;;1.60;0.60;;;3.50;69.80;;;;;;5092340;28;20039;-70
2023/01/21 08:06:05;;;;;;;0.75;0.40;;;3.60;68.70;;;;;;5097118;28;20515;-70
2023/01/21 08:08:31;;;;;;;0.90;0.40;;;3.60;68.90;;;;;;5103592;28;20358;-70
2023/01/21 08:10:57;;;;;;;1.08;0.30;;;3.80;67.90;;;;;;5104134;28;20039;-70
2023/01/21 08:13:24;;;;;;;1.63;0.60;;;3.70;68.90;;;;;;5103566;28;20027;-71
2023/01/21 08:15:50;;;;;;;0.75;0.35;;;3.70;67.90;;;;;;5105001;28;20024;-70
2023/01/21 08:18:16;;;;;;;1.33;0.50;;;3.80;67.90;;;;;;5091964;28;20028;-71
2023/01/21 08:20:42;;;;;;;0.85;0.50;;;3.80;67.90;;;;;;5094513;28;20292;-70
2023/01/21 08:23:08;;;;;;;2.35;0.50;;;3.80;68.40;;;;;;5104245;28;20062;-71
2023/01/21 08:25:33;;;;;;;1.52;0.50;;;3.70;69.70;;;;;;5103766;28;20108;-70
2023/01/21 08:27:59;;;;;;;2.33;0.95;;;3.60;68.20;;;;;;5103455;28;20389;-70
2023/01/21 08:30:25;;;;;;;0.90;0.52;;;3.70;68.30;;;;;;5103600;28;20028;-70
2023/01/21 08:32:51;;;;;;;1.00;0.40;;;3.70;68.50;;;;;;5100625;28;20020;-70
2023/01/21 08:35:17;;;;;;;0.80;0.35;;;3.90;67.60;;;;;;5101709;28;20027;-70
2023/01/21 08:37:43;;;;;;;0.82;0.40;;;3.80;68.30;;;;;;5104458;28;20091;-70
2023/01/21 08:40:09;;;;;;;0.68;0.38;;;3.70;69.70;;;;;;5099232;28;21369;-70
2023/01/21 08:42:35;;;;;;;1.10;0.45;;;3.60;68.70;;;;;;5103339;28;20036;-70
2023/01/21 08:45:00;;;;;;;1.65;0.70;;;3.80;68.10;;;;;;5102959;28;20035;-70
2023/01/21 08:47:26;;;;;;;1.17;0.52;;;3.70;68.50;;;;;;5103318;28;20050;-70
2023/01/21 08:49:52;;;;;;;2.20;0.73;;;3.80;67.90;;;;;;5104440;28;20028;-70
2023/01/21 08:52:19;;;;;;;0.50;0.25;;;3.80;68.80;;;;;;5104138;28;20020;-70
2023/01/21 08:54:45;;;;;;;0.93;0.35;;;3.70;69.60;;;;;;5101208;28;20076;-70
2023/01/21 08:57:11;;;;;;;1.75;0.43;;;3.80;68.60;;;;;;5101852;28;20043;-70
2023/01/21 08:59:37;;;;;;;1.05;0.45;;;3.90;68.80;;;;;;5105265;28;20055;-70
2023/01/21 09:02:03;;;;;;;3.20;0.80;;;4.00;67.50;;;;;;5102512;28;20119;-70
2023/01/21 09:04:28;;;;;;;1.40;0.50;;;4.10;67.50;;;;;;5106184;28;20150;-70
2023/01/21 09:06:54;;;;;;;4.10;1.70;;;3.90;68.90;;;;;;5107821;28;20414;-70
2023/01/21 09:09:20;;;;;;;1.85;0.82;;;3.80;68.30;;;;;;5104577;28;20031;-70
2023/01/21 09:11:45;;;;;;;0.98;0.40;;;3.80;69.30;;;;;;5104416;28;20880;-70
2023/01/21 09:14:11;;;;;;;1.30;0.60;;;3.70;69.30;;;;;;5107182;28;20530;-70
2023/01/21 09:16:37;;;;;;;0.63;0.30;;;3.80;68.70;;;;;;5104342;28;20097;-70
2023/01/21 09:19:03;;;;;;;5.75;2.00;;;3.90;68.20;;;;;;5108556;28;20031;-70
2023/01/21 09:21:30;;;;;;;1.48;0.90;;;3.90;68.70;;;;;;5108674;28;20031;-70
2023/01/21 09:23:56;;;;;;;1.75;0.75;;;3.90;68.30;;;;;;5107316;28;20146;-70
2023/01/21 09:26:23;;;;;;;5.50;1.27;;;4.00;67.80;;;;;;5108132;28;20099;-70
2023/01/21 09:28:57;;;;;;;1.10;0.60;;;4.10;68.10;;;;;;5106724;28;20043;-70
2023/01/21 09:31:25;;;;;;;0.70;0.40;;;4.20;67.80;;;;;;5107376;28;20032;-70
2023/01/21 09:33:53;;;;;;;1.17;0.50;;;4.30;66.90;;;;;;5108396;28;20032;-70
2023/01/21 09:36:21;;;;;;;2.70;0.30;;;4.30;67.20;;;;;;5109615;28;20075;-71
2023/01/21 09:38:49;;;;;;;0.73;0.40;;;4.20;67.60;;;;;;5104434;28;20028;-70
2023/01/21 09:41:23;;;;;;;2.13;0.68;;;4.30;66.90;;;;;;5107470;28;20160;-70
2023/01/21 09:44:11;;;;;;;2.25;0.57;;;4.20;69.00;;;;;;5109294;28;20396;-71
2023/01/21 09:46:54;;;;;;;0.95;0.40;;;4.40;66.70;;;;;;5095950;28;20504;-70
2023/01/21 09:49:32;;;;;;;1.52;0.57;;;4.30;67.30;;;;;;5089055;28;20445;-70
2023/01/21 09:52:19;;;;;;;0.80;0.30;;;4.40;67.50;;;;;;5103943;28;20023;-70
2023/01/21 09:54:44;;;;;;;1.90;0.55;;;4.30;68.00;;;;;;5105196;28;20039;-70
2023/01/21 09:57:13;;;;;;;2.50;0.68;;;4.70;65.90;;;;;;5107266;28;20028;-70
2023/01/21 10:00:09;;;;;;;2.25;0.50;;;4.60;66.40;;;;;;5103718;28;20080;-70
2023/01/21 10:02:43;;;;;;;1.02;0.35;;;4.50;66.80;;;;;;5103811;28;20497;-70
2023/01/21 10:05:38;;;;;;;2.97;0.60;;;4.60;66.40;;;;;;5107818;28;20035;-70
2023/01/21 10:08:12;;;;;;;1.25;0.47;;;4.70;65.90;;;;;;5087096;28;20063;-70
2023/01/21 10:11:02;;;;;;;0.70;0.35;;;4.70;66.10;;;;;;5104734;28;20359;-70
2023/01/21 10:13:51;;;;;;;0.98;0.38;;;4.50;68.00;;;;;;5098740;28;20028;-71
2023/01/21 10:16:29;;;;;;;0.90;0.35;;;4.80;66.00;;;;;;5111039;27;20384;-71
2023/01/21 10:18:57;;;;;;;0.95;0.40;;;4.90;65.30;;;;;;5103575;28;20031;-71
2023/01/21 10:21:47;;;;;;;1.20;0.60;;;4.90;66.00;;;;;;5106450;28;20028;-70
2023/01/21 10:24:24;;;;;;;1.08;0.40;;;5.00;65.40;;;;;;5101340;28;20501;-71
2023/01/21 10:26:52;;;;;;;1.10;0.40;;;4.90;66.60;;;;;;5098341;28;20160;-70
2023/01/21 10:29:21;;;;;;;2.28;0.65;;;5.00;65.00;;;;;;5105377;28;20064;-71
2023/01/21 10:32:05;;;;;;;0.40;0.35;;;5.10;65.00;;;;;;5104361;28;20024;-71
2023/01/21 10:34:37;;;;;;;1.08;0.35;;;5.00;65.80;;;;;;5104962;28;20028;-71
2023/01/21 10:37:10;;;;;;;0.93;0.47;;;5.10;64.40;;;;;;5105386;28;20093;-70
2023/01/21 10:39:55;;;;;;;0.35;0.30;;;5.10;65.90;;;;;;5105866;28;20038;-70
2023/01/21 10:42:30;;;;;;;;;;;5.40;64.80;;;;;;5085391;28;20501;-70
2023/01/21 10:45:11;;;;;;;1.10;0.47;;;5.50;65.10;;;;;;5088081;28;19907;-71
2023/01/21 10:47:53;;;;;;;1.13;0.30;;;5.50;65.60;;;;;;5087409;28;20350;-70
2023/01/21 10:50:30;;;;;;;0.30;0.20;;;5.80;65.30;;;;;;5105867;28;20034;-70
2023/01/21 10:53:38;;;;;;;0.90;0.28;;;5.80;65.30;;;;;;5102982;28;20031;-70
2023/01/21 10:56:19;;;;;;;2.33;0.60;;;5.90;64.30;;;;;;5104825;28;20038;-70
2023/01/21 10:58:58;;;;;;;0.68;0.38;;;5.80;64.10;;;;;;5105015;28;20024;-70
2023/01/21 11:01:32;;;;;;;1.00;0.30;;;5.90;63.90;;;;;;5102131;28;20106;-70
2023/01/21 11:04:03;;;;;;;1.48;0.50;;;5.90;65.20;;;;;;5103380;28;20039;-70
2023/01/21 11:06:31;;;;;;;0.57;0.20;;;6.00;63.90;;;;;;5103299;28;20039;-70
2023/01/21 11:09:03;;;;;;;0.95;0.20;;;6.10;64.20;;;;;;5101348;28;20049;-70
2023/01/21 11:11:32;;;;;;;0.65;0.30;;;6.10;64.00;;;;;;5096419;28;20402;-70
2023/01/21 11:13:58;;;;;;;1.08;0.30;;;6.10;64.00;;;;;;5105035;28;20018;-70
2023/01/21 11:16:45;;;;;;;0.60;0.30;;;6.20;63.50;;;;;;5100937;28;20027;-70
2023/01/21 11:19:21;;;;;;;0.25;0.10;;;6.20;63.20;;;;;;5103774;28;20028;-71
2023/01/21 11:22:02;;;;;;;3.80;0.45;;;6.50;64.00;;;;;;5105146;28;20059;-71
2023/01/21 11:24:31;;;;;;;0.93;0.30;;;6.40;63.10;;;;;;5104121;28;20028;-70
2023/01/21 11:27:01;;;;;;;0.43;0.20;;;6.40;63.30;;;;;;5103551;28;20041;-70
2023/01/21 11:29:39;;;;;;;1.25;0.55;;;6.40;63.10;;;;;;5098655;28;20541;-70
2023/01/21 11:32:23;;;;;;;0.95;0.32;;;6.40;62.70;;;;;;5102976;28;20036;-70
2023/01/21 11:35:00;;;;;;;0.20;0.20;;;6.50;63.90;;;;;;5102742;28;20039;-70
2023/01/21 11:37:28;;;;;;;2.88;0.40;;;6.60;63.40;;;;;;5102275;28;20422;-70
2023/01/21 11:40:06;;;;;;;1.48;0.30;;;6.70;63.20;;;;;;5104743;28;20161;-70
2023/01/21 11:42:32;;;;;;;2.40;0.30;;;6.70;63.10;;;;;;5103572;28;20039;-70
2023/01/21 11:45:17;;;;;;;0.10;0.10;;;6.70;63.30;;;;;;5103886;28;20753;-71
2023/01/21 11:47:49;;;;;;;1.95;0.45;;;6.50;63.20;;;;;;5089134;28;20052;-71
2023/01/21 11:50:25;;;;;;;0.50;0.30;;;6.60;63.60;;;;;;5102375;28;20042;-72
2023/01/21 11:53:06;;;;;;;0.73;0.30;;;6.70;63.50;;;;;;5104775;28;20031;-70
2023/01/21 11:55:53;;;;;;;1.45;0.65;;;6.80;62.90;;;;;;5087843;28;20026;-70
2023/01/21 11:58:23;;;;;;;1.05;0.22;;;6.90;63.10;;;;;;5100663;28;20047;-70
2023/01/21 12:00:52;;;;;;;0.50;0.28;;;6.80;63.20;;;;;;5103902;28;20043;-71
2023/01/21 12:03:21;;;;;;;0.75;0.30;;;6.80;63.00;;;;;;5101886;28;20079;-74
2023/01/21 12:05:52;;;;;;;2.13;0.47;;;6.70;62.70;;;;;;5092505;28;20036;-71
2023/01/21 12:08:30;;;;;;;0.38;0.20;;;6.80;63.90;;;;;;5092387;28;20027;-73
2023/01/21 12:11:00;;;;;;;0.35;0.20;;;6.80;63.40;;;;;;5090160;28;20032;-73
2023/01/21 12:13:49;;;;;;;2.60;0.35;;;6.70;63.30;;;;;;5093042;28;20575;-74
2023/01/21 12:16:35;;;;;;;0.47;0.28;;;6.80;63.20;;;;;;5093085;28;20399;-73
2023/01/21 12:19:21;;;;;;;1.08;0.35;;;6.80;62.90;;;;;;5092369;28;20493;-72
2023/01/21 12:22:01;;;;;;;1.27;0.57;;;6.90;64.50;;;;;;5088567;28;20481;-73
2023/01/21 12:24:40;;;;;;;0.63;0.13;;;6.90;63.80;;;;;;5088395;28;20789;-72
2023/01/21 12:27:08;;;;;;;0.32;0.30;;;6.90;62.90;;;;;;5091784;28;20041;-72
2023/01/21 12:29:52;;;;;;;2.92;0.43;;;7.10;63.40;;;;;;5095580;28;20042;-72
2023/01/21 12:32:18;;;;;;;0.30;0.20;;;7.10;62.60;;;;;;5103839;28;20028;-73
2023/01/21 12:35:01;;;;;;;0.80;0.30;;;7.20;63.60;;;;;;5092796;28;20032;-71
2023/01/21 12:37:41;;;;;;;0.90;0.45;;;7.20;63.90;;;;;;5094833;28;20032;-71
2023/01/21 12:40:23;;;;;;;1.00;0.50;;;7.20;63.80;;;;;;5094837;28;20115;-71
2023/01/21 12:42:54;;;;;;;1.63;0.50;;;7.20;62.60;;;;;;5095653;28;20484;-71
2023/01/21 12:45:35;;;;;;;0.32;0.10;;;7.20;63.70;;;;;;5098324;28;20169;-72
2023/01/21 12:48:23;;;;;;;0.22;0.20;;;7.20;63.10;;;;;;5101321;28;20051;-71
2023/01/21 12:50:55;;;;;;;0.70;0.28;;;7.20;62.90;;;;;;5100313;28;20074;-71
2023/01/21 12:53:42;;;;;;;1.38;0.40;;;7.30;62.80;;;;;;5094942;28;20028;-72
2023/01/21 12:56:28;;;;;;;0.52;0.30;;;7.30;63.40;;;;;;5094690;28;20058;-72
2023/01/21 12:59:11;;;;;;;1.52;0.35;;;7.30;63.30;;;;;;5097927;28;20031;-72
2023/01/21 13:01:47;;;;;;;1.23;0.38;;;7.30;63.50;;;;;;5093192;28;20042;-72
2023/01/21 13:04:21;;;;;;;0.75;0.22;;;7.30;63.60;;;;;;5088386;28;20036;-72
2023/01/21 13:06:58;;;;;;;0.30;0.20;;;7.30;63.00;;;;;;5093134;28;20024;-72
2023/01/21 13:09:45;;;;;;;0.88;0.20;;;7.20;62.40;;;;;;5100413;28;20050;-72
2023/01/21 13:12:14;;;;;;;0.73;0.32;;;7.20;63.10;;;;;;5109031;27;20070;-72
2023/01/21 13:14:43;;;;;;;0.85;0.25;;;7.10;62.90;;;;;;5105357;27;20020;-72
2023/01/21 13:17:21;;;;;;;0.95;0.70;;;7.00;63.00;;;;;;5108473;27;20097;-72
2023/01/21 13:19:47;;;;;;;0.75;0.30;;;7.10;63.90;;;;;;5105601;28;20016;-72